CheckWX is a tool to help pilots better visualize weather data.  It is not intended as a substitute for an official pre-flight weather briefing.

09:20:18 UTC

KSFF TAF
Felts Field Airport
Spokane, Washington, USA
KSFF 180520Z 1806/1906 VRB03KT P6SM FEW080 SCT200 FM181100 22008KT P6SM SCT250 FM181800 24011KT P6SM SCT070 FM190300 23009KT P6SM SCT250

Jun-18@
06:00 UTC

Jun-18 @ 06:00 UTC

Jun-18@
11:00 UTC

Jun-18 @ 11:00 UTC

KSFF 180520Z 1806/1906 VRB03KT P6SM FEW080 SCT200
Wind
  • Variable at 3 KTS
Cloud Levels
  • Few at 8,000' AGL
  • Scattered at 20,000' AGL

Jun-18@
11:00 UTC

Jun-18 @ 11:00 UTC

Jun-18@
18:00 UTC

Jun-18 @ 18:00 UTC

FM181100 22008KT P6SM SCT250

From

From Standard forecast or significant change

Wind
  • 220° at 8 KTS
Cloud Levels
  • Scattered at 25,000' AGL

Jun-18@
18:00 UTC

Jun-18 @ 18:00 UTC

Jun-19@
03:00 UTC

Jun-19 @ 03:00 UTC

FM181800 24011KT P6SM SCT070

From

From Standard forecast or significant change

Wind
  • 240° at 11 KTS
Cloud Levels
  • Scattered at 7,000' AGL

Jun-19@
03:00 UTC

Jun-19 @ 03:00 UTC

Jun-19@
06:00 UTC

Jun-19 @ 06:00 UTC

FM190300 23009KT P6SM SCT250

From

From Standard forecast or significant change

Wind
  • 230° at 9 KTS
Cloud Levels
  • Scattered at 25,000' AGL